Henderson, TN

6:44 PM CDT on August 20, 2014 (GMT -0500)
Woods | Change Station
CLOSE
Current Station
Personal Weather Station
Location: Henderson, TN
Elevation: 472 ft
Nearby Weather Stations

Elev 472 ft 35.44 °N, 88.66 °W | Updated 2 minutes ago

Scattered Clouds
Scattered Clouds
85.6 °F
Feels Like 95 °F
N
6.3
Wind Variable Wind from NE

Today
High -- | Low -- °F
--% Chance of Precip.
Yesterday
High -- | Low -- °F
Precip. -- in
6:17 AM 7:37 PM
Waning Crescent, 18% visible
Pressure 29.95 in
Visibility 10.0 miles
Clouds Scattered Clouds 4900 ft
Heat Index 95 °F
Dew Point 76 °F
Humidity 72%
Rainfall 0.00 in
Snow Depth Not available.
UV 1 out of 12
Pollen 8.50 out of 12
Air Quality Not available.
Flu Activity Not available.
METAR KMKL 202253Z 23007KT 10SM SCT049 33/23 A2997 RMK AO2 SLP141 T03280233

More Conditions Fewer Conditions

Pressure 29.95 in
Visibility 10.0 miles
Clouds Scattered Clouds 4900 ft
Heat Index 95 °F
Dew Point 76 °F
Humidity 72%
Rainfall 0.00 in
Snow Depth Not available.
UV 1 out of 12
Pollen 8.50 out of 12
Air Quality Not available.
Flu Activity Not available.
METAR KMKL 202253Z 23007KT 10SM SCT049 33/23 A2997 RMK AO2 SLP141 T03280233

More Conditions Fewer Conditions

10-Day Weather Forecast

Almanac

Astronomy

Aug. 20, 2014 Rise Set
Actual Time 6:17 AM CDT 7:37 PM CDT
Civil Twilight 5:51 AM CDT 8:04 PM CDT
Nautical Twilight 5:19 AM CDT 8:35 PM CDT
Astronomical Twilight 4:46 AM CDT 9:09 PM CDT
Moon 2:01 AM CDT 4:18 PM CDT
Length of Visible Light 14h 12m
Length of Day
13h 19m
Tomorrow will be 2m 2s shorter.
Waning Crescent, 18% of the Moon is Illuminated
Today
Waning Crescent
Aug 25
New
Sep 2
First Quarter
Sep 8
Full
Sep 15
Last Quarter

Today's Extremes

State Highs State Lows

Community

WunderPhotos

Upload Photos

1,745,801 photos uploaded!

Nearby

Snow Depth

Station Depth Elevation
No new snow has been reported.

Earthquake Activity

City Distance Mag. Time & Date
No recent earthquake activity has been reported nearby.
Minimum magnitude displayed is 2.5.

Coastal Water Temperatures

Place Temperature
No Stations Reporting

Nearby Weather Stations